Time;durP1;ratioP1;P1;durP2;ratioP2;P2;SDS_P1;SDS_P2;PMS_P1;PMS_P2;Temp;Humidity;BMP_temperature;BMP_pressure;BME280_temperature;BME280_humidity;BME280_pressure;Samples;Min_cycle;Max_cycle;Signal;HPM_P1;HPM_P2
2023/10/20 00:01:28;;;;;;;12.43;7.07;;;;;;;7.10;100.00;99172.13;4913516;28;20032;-73
2023/10/20 00:03:53;;;;;;;18.30;8.82;;;;;;;7.17;100.00;99181.84;4937206;29;20278;-75
2023/10/20 00:06:19;;;;;;;11.87;7.90;;;;;;;7.18;100.00;99172.03;4914440;29;20075;-73
2023/10/20 00:08:45;;;;;;;12.90;8.43;;;;;;;7.20;100.00;99167.38;4937046;28;20031;-73
2023/10/20 00:11:10;;;;;;;15.60;8.05;;;;;;;7.18;100.00;99159.59;4914636;29;20032;-76
2023/10/20 00:13:36;;;;;;;12.38;7.22;;;;;;;7.02;100.00;99129.72;4913187;28;20035;-72
2023/10/20 00:16:01;;;;;;;11.55;8.73;;;;;;;7.00;100.00;99121.94;4931421;29;20043;-72
2023/10/20 00:18:26;;;;;;;13.63;8.63;;;;;;;7.03;100.00;99124.25;4927158;29;20024;-73
2023/10/20 00:20:52;;;;;;;9.40;6.50;;;;;;;7.00;100.00;99116.66;4897558;29;20086;-73
2023/10/20 00:23:17;;;;;;;11.93;6.83;;;;;;;7.04;100.00;99091.38;4926025;29;20451;-73
2023/10/20 00:25:43;;;;;;;12.50;7.47;;;;;;;7.10;100.00;99113.72;4916879;29;20046;-73
2023/10/20 00:28:09;;;;;;;15.63;7.35;;;;;;;7.04;100.00;99095.88;4912908;28;20473;-73
2023/10/20 00:30:35;;;;;;;12.75;7.65;;;;;;;7.12;100.00;99120.50;4928319;29;20055;-73
2023/10/20 00:33:01;;;;;;;;;;;;;;;7.15;100.00;99122.78;4929591;29;20458;-73
2023/10/20 00:35:27;;;;;;;10.10;6.55;;;;;;;7.01;100.00;99122.78;4926999;29;20002;-73
2023/10/20 00:37:53;;;;;;;14.98;6.60;;;;;;;7.14;100.00;99146.84;4929495;29;20024;-73
2023/10/20 00:40:20;;;;;;;13.33;6.90;;;;;;;7.17;100.00;99134.06;4925997;29;20078;-73
2023/10/20 00:42:45;;;;;;;10.95;5.78;;;;;;;7.04;100.00;99117.91;4915081;29;20479;-74
2023/10/20 00:45:11;;;;;;;14.45;7.32;;;;;;;6.97;100.00;99107.19;4928636;29;20135;-73
2023/10/20 00:47:38;;;;;;;12.13;7.45;;;;;;;7.10;100.00;99121.69;4915151;29;20020;-74
2023/10/20 00:50:05;;;;;;;11.40;6.35;;;;;;;7.01;100.00;99107.66;4898850;28;20510;-73
2023/10/20 00:52:35;;;;;;;11.25;6.78;;;;;;;7.02;100.00;99101.34;4928478;29;20031;-72
2023/10/20 00:55:01;;;;;;;12.27;8.02;;;;;;;7.06;100.00;99115.91;4928967;28;20032;-74
2023/10/20 00:57:26;;;;;;;9.38;5.65;;;;;;;7.10;100.00;99109.25;4926191;29;20026;-73
2023/10/20 00:59:52;;;;;;;10.18;6.22;;;;;;;7.03;100.00;99112.81;4923965;29;20408;-74
2023/10/20 01:02:18;;;;;;;9.57;6.10;;;;;;;7.16;100.00;99124.47;4928930;29;20062;-73
2023/10/20 01:04:44;;;;;;;14.70;6.53;;;;;;;7.12;100.00;99130.31;4913017;29;20467;-73
2023/10/20 01:07:09;;;;;;;11.48;6.50;;;;;;;6.92;100.00;99103.44;4919501;28;20063;-74
2023/10/20 01:09:38;;;;;;;10.13;6.60;;;;;;;7.04;100.00;99109.94;4935302;28;20118;-73
2023/10/20 01:12:03;;;;;;;10.18;6.43;;;;;;;7.00;100.00;99111.34;4930672;29;20036;-73
2023/10/20 01:14:28;;;;;;;9.00;5.57;;;;;;;7.05;100.00;99108.97;4939069;29;20036;-73
2023/10/20 01:16:54;;;;;;;12.30;5.53;;;;;;;7.11;100.00;99096.78;4919727;28;20071;-73
2023/10/20 01:19:20;;;;;;;11.95;6.20;;;;;;;7.04;100.00;99075.47;4909693;29;20039;-73
2023/10/20 01:21:46;;;;;;;8.63;5.53;;;;;;;7.06;100.00;99077.94;4915077;29;20039;-74
2023/10/20 01:24:11;;;;;;;10.90;5.83;;;;;;;7.01;100.00;99059.91;4925779;28;20528;-73
2023/10/20 01:26:37;;;;;;;9.48;6.13;;;;;;;7.01;100.00;99059.09;4927011;28;20756;-73
2023/10/20 01:29:05;;;;;;;8.23;5.63;;;;;;;7.07;100.00;99061.84;4913264;28;20044;-73
2023/10/20 01:31:31;;;;;;;10.35;6.68;;;;;;;6.97;100.00;99053.31;4925538;29;20409;-73
2023/10/20 01:33:56;;;;;;;8.90;6.15;;;;;;;7.04;100.00;99070.16;4928967;29;20040;-73
2023/10/20 01:36:22;;;;;;;10.27;5.73;;;;;;;6.98;100.00;99073.53;4927041;29;20123;-73
2023/10/20 01:38:47;;;;;;;9.57;6.30;;;;;;;7.06;100.00;99073.44;4923362;29;20036;-73
2023/10/20 01:41:12;;;;;;;13.87;6.63;;;;;;;7.17;100.00;99091.59;4925598;29;20035;-73
2023/10/20 01:43:38;;;;;;;13.23;6.30;;;;;;;7.01;100.00;99091.75;4908384;29;20028;-73
2023/10/20 01:46:04;;;;;;;9.23;6.60;;;;;;;7.06;100.00;99094.69;4911301;29;20544;-73
2023/10/20 01:48:32;;;;;;;13.35;6.55;;;;;;;6.95;100.00;99084.50;4913214;29;20477;-73
2023/10/20 01:51:01;;;;;;;14.82;7.68;;;;;;;7.10;100.00;99101.28;4929045;29;20034;-73
2023/10/20 01:53:27;;;;;;;10.15;6.43;;;;;;;7.02;100.00;99082.78;4925535;28;20042;-73
2023/10/20 01:55:53;;;;;;;10.40;6.27;;;;;;;6.94;100.00;99058.97;4909538;28;20265;-73
2023/10/20 01:58:19;;;;;;;;;;;;;;;7.04;100.00;99070.16;4925740;28;20396;-73
2023/10/20 02:00:51;;;;;;;10.85;6.90;;;;;;;6.88;100.00;99065.84;4923375;28;19926;-74
2023/10/20 02:03:17;;;;;;;10.55;6.72;;;;;;;6.83;100.00;99070.03;4924649;29;20039;-74
2023/10/20 02:05:43;;;;;;;12.38;7.55;;;;;;;6.97;100.00;99101.88;4922616;29;20392;-73
2023/10/20 02:08:08;;;;;;;10.20;5.57;;;;;;;6.90;100.00;99079.72;4926604;29;20031;-74
2023/10/20 02:10:34;;;;;;;9.63;6.10;;;;;;;6.85;100.00;99075.97;4925714;29;20046;-73
2023/10/20 02:13:00;;;;;;;10.48;6.40;;;;;;;6.88;100.00;99081.75;4928819;29;20054;-74
2023/10/20 02:15:26;;;;;;;12.23;6.47;;;;;;;6.96;100.00;99096.78;4909847;29;20518;-74
2023/10/20 02:17:51;;;;;;;12.17;6.50;;;;;;;6.82;100.00;99081.66;4921085;28;20126;-73
2023/10/20 02:20:20;;;;;;;12.40;6.40;;;;;;;6.92;100.00;99100.78;4925825;29;20027;-74
2023/10/20 02:22:49;;;;;;;10.10;6.60;;;;;;;6.92;100.00;99090.16;4922605;29;20031;-73
2023/10/20 02:25:16;;;;;;;9.60;5.30;;;;;;;6.74;100.00;99059.50;4925350;29;20028;-73
2023/10/20 02:27:42;;;;;;;11.25;5.60;;;;;;;6.83;100.00;99062.88;4922288;29;20039;-73
2023/10/20 02:30:12;;;;;;;9.82;4.78;;;;;;;6.79;100.00;99058.09;4929948;29;20030;-73
2023/10/20 02:32:38;;;;;;;7.47;4.65;;;;;;;6.80;100.00;99057.94;4925171;28;20039;-73
2023/10/20 02:35:04;;;;;;;10.00;4.90;;;;;;;6.85;100.00;99071.47;4909370;28;20039;-74
2023/10/20 02:37:30;;;;;;;7.82;4.75;;;;;;;6.52;100.00;99037.28;4924662;29;20030;-73
2023/10/20 02:39:55;;;;;;;8.20;4.82;;;;;;;6.65;100.00;99052.59;4926392;29;20527;-73
2023/10/20 02:42:20;;;;;;;9.03;5.90;;;;;;;6.85;100.00;99057.41;4925624;29;20512;-73
2023/10/20 02:44:46;;;;;;;8.73;5.53;;;;;;;6.67;100.00;99049.75;4937120;29;20031;-74
2023/10/20 02:47:11;;;;;;;11.57;5.90;;;;;;;6.68;100.00;99080.59;4908137;29;20322;-74
2023/10/20 02:49:36;;;;;;;9.67;5.60;;;;;;;6.54;100.00;99060.97;4907561;29;20043;-73
2023/10/20 02:52:02;;;;;;;8.67;5.30;;;;;;;6.54;100.00;99060.97;4911760;29;20098;-73
2023/10/20 02:54:27;;;;;;;12.50;6.23;;;;;;;6.51;100.00;99067.47;4922315;28;20039;-74
2023/10/20 02:56:56;;;;;;;10.67;5.93;;;;;;;6.65;100.00;99060.56;4926597;29;20023;-74
2023/10/20 02:59:21;;;;;;;10.50;5.30;;;;;;;6.51;100.00;99053.38;4938135;29;20044;-74
2023/10/20 03:01:46;;;;;;;9.30;6.25;;;;;;;6.50;100.00;99055.19;4929423;29;20036;-74
2023/10/20 03:04:12;;;;;;;10.30;5.70;;;;;;;6.49;100.00;99055.38;4925797;29;20111;-74
2023/10/20 03:06:37;;;;;;;11.30;5.60;;;;;;;6.51;100.00;99048.09;4928471;29;20480;-74
2023/10/20 03:09:03;;;;;;;10.63;6.37;;;;;;;6.44;100.00;99028.56;4921224;29;20051;-74
2023/10/20 03:11:30;;;;;;;10.23;6.28;;;;;;;6.44;100.00;99047.13;4926476;28;20035;-74
2023/10/20 03:13:56;;;;;;;11.57;6.03;;;;;;;6.55;100.00;99058.16;4913031;28;20035;-74
2023/10/20 03:16:22;;;;;;;;;;;;;;;6.53;100.00;99072.56;4907993;29;20027;-75
2023/10/20 03:18:47;;;;;;;11.32;6.47;;;;;;;6.58;100.00;99072.88;4928763;29;20387;-74
2023/10/20 03:21:13;;;;;;;9.60;5.88;;;;;;;6.59;100.00;99093.09;4935477;29;20500;-74
2023/10/20 03:23:43;;;;;;;12.73;7.57;;;;;;;6.62;100.00;99098.03;4925589;28;20042;-75
2023/10/20 03:26:12;;;;;;;13.38;7.10;;;;;;;6.56;100.00;99082.84;4923446;29;20500;-75
2023/10/20 03:28:39;;;;;;;13.52;7.15;;;;;;;6.52;100.00;99061.16;4924913;29;20023;-75
2023/10/20 03:31:04;;;;;;;;;;;;;;;6.62;100.00;99055.59;4923986;29;20045;-74
2023/10/20 03:33:30;;;;;;;16.10;7.68;;;;;;;6.56;100.00;99040.41;4926527;29;19915;-75
2023/10/20 03:36:04;;;;;;;14.05;7.57;;;;;;;6.64;100.00;99052.78;4926888;28;20096;-75
2023/10/20 03:38:30;;;;;;;12.52;8.30;;;;;;;6.75;100.00;99063.78;4929055;29;20028;-75
2023/10/20 03:41:11;;;;;;;15.43;9.38;;;;;;;6.82;100.00;99068.38;4926788;29;20051;-75
2023/10/20 03:43:36;;;;;;;13.55;7.85;;;;;;;6.76;100.00;99040.72;4938256;29;20067;-73
2023/10/20 03:46:05;;;;;;;17.67;8.93;;;;;;;6.70;100.00;99031.66;4922061;29;20047;-73
2023/10/20 03:48:33;;;;;;;16.85;8.18;;;;;;;6.75;100.00;99024.00;4918611;28;20284;-74
2023/10/20 03:50:59;;;;;;;15.05;7.75;;;;;;;6.70;100.00;99015.75;4912358;28;20077;-74
2023/10/20 03:53:28;;;;;;;14.35;8.85;;;;;;;6.76;100.00;99028.28;4931264;28;20260;-74
2023/10/20 03:56:04;;;;;;;13.73;9.40;;;;;;;6.79;100.00;99028.94;4917418;29;20123;-74
2023/10/20 03:58:30;;;;;;;17.35;10.00;;;;;;;6.81;100.00;99048.16;4923171;28;20488;-74
2023/10/20 04:01:07;;;;;;;18.80;10.00;;;;;;;6.82;100.00;99055.13;4925938;29;20055;-74
2023/10/20 04:03:32;;;;;;;19.27;9.80;;;;;;;6.85;100.00;99065.34;4936273;29;20420;-74
2023/10/20 04:06:00;;;;;;;15.68;8.68;;;;;;;6.89;100.00;99072.78;4927295;29;20020;-74
2023/10/20 04:08:25;;;;;;;25.05;9.15;;;;;;;6.71;100.00;99081.03;4928382;29;20051;-75
2023/10/20 04:10:58;;;;;;;18.70;10.93;;;;;;;6.78;100.00;99102.38;4922417;29;20028;-74
2023/10/20 04:13:24;;;;;;;14.23;6.55;;;;;;;6.75;100.00;99098.25;4934570;29;20046;-74
2023/10/20 04:15:55;;;;;;;17.00;7.72;;;;;;;6.91;100.00;99117.72;4916290;29;20496;-74
2023/10/20 04:18:22;;;;;;;11.60;6.53;;;;;;;6.71;100.00;99135.94;4930678;28;20059;-75
2023/10/20 04:20:48;;;;;;;24.67;6.72;;;;;;;6.88;100.00;99149.88;4923426;29;20020;-74
2023/10/20 04:23:16;;;;;;;10.30;4.43;;;;;;;6.88;100.00;99139.28;4925992;29;20315;-75
2023/10/20 04:25:54;;;;;;;13.95;5.38;;;;;;;6.72;100.00;99125.16;4937067;29;20028;-74
2023/10/20 04:28:38;;;;;;;10.63;4.78;;;;;;;6.70;100.00;99132.44;4918134;29;20028;-74
2023/10/20 04:42:43;;;;;;;8.45;4.03;;;;;;;6.73;100.00;99091.50;4929735;29;20040;-74
2023/10/20 04:50:41;;;;;;;6.60;3.63;;;;;;;6.46;100.00;99040.66;4932850;29;20036;-74
2023/10/20 04:58:51;;;;;;;8.55;3.90;;;;;;;6.45;100.00;99027.56;4932789;29;20684;-74
2023/10/20 05:01:27;;;;;;;8.35;3.35;;;;;;;6.54;100.00;99047.72;4931281;29;20130;-74
2023/10/20 05:03:56;;;;;;;13.88;3.65;;;;;;;6.51;100.00;99032.19;4932574;29;20071;-74
2023/10/20 05:06:40;;;;;;;8.60;3.22;;;;;;;6.60;100.00;99044.34;4931167;29;20126;-74
2023/10/20 05:09:06;;;;;;;6.72;2.78;;;;;;;6.46;100.00;99010.66;4928632;29;20105;-74
2023/10/20 05:11:31;;;;;;;6.35;3.13;;;;;;;6.52;100.00;99023.22;4932708;29;20120;-74
2023/10/20 05:13:57;;;;;;;9.03;3.10;;;;;;;6.56;100.00;99024.50;4924680;29;20040;-74
2023/10/20 05:16:25;;;;;;;9.65;3.38;;;;;;;6.43;100.00;99000.41;4931013;29;20043;-75
2023/10/20 05:18:51;;;;;;;7.32;3.60;;;;;;;6.50;100.00;99011.94;4932272;29;20009;-75
2023/10/20 05:21:18;;;;;;;7.35;2.75;;;;;;;6.39;100.00;98999.97;4932272;29;20127;-74
2023/10/20 05:23:46;;;;;;;11.02;3.50;;;;;;;6.51;100.00;99010.97;4919044;28;20020;-74
2023/10/20 05:26:11;;;;;;;6.68;2.22;;;;;;;6.41;100.00;99000.59;4945647;29;20035;-74
2023/10/20 05:28:37;;;;;;;6.50;2.20;;;;;;;6.38;100.00;98978.94;4927749;29;20039;-74
2023/10/20 05:31:02;;;;;;;5.47;2.13;;;;;;;6.41;100.00;98973.25;4945302;29;20035;-75
2023/10/20 05:33:28;;;;;;;4.30;2.05;;;;;;;6.50;100.00;98980.13;4929887;28;20038;-74
2023/10/20 05:36:00;;;;;;;7.10;1.80;;;;;;;6.45;100.00;98972.72;4926946;28;20036;-74
2023/10/20 05:38:25;;;;;;;4.28;2.22;;;;;;;6.35;100.00;98969.50;4930413;29;20044;-75
2023/10/20 05:40:58;;;;;;;2.73;1.67;;;;;;;6.50;100.00;98977.47;4919215;29;20032;-74
2023/10/20 05:43:24;;;;;;;5.40;2.20;;;;;;;6.36;100.00;98967.66;4917821;29;20039;-75
2023/10/20 05:45:50;;;;;;;6.53;1.80;;;;;;;6.38;100.00;98947.13;4939132;29;20034;-74
2023/10/20 05:48:19;;;;;;;5.63;2.30;;;;;;;6.41;100.00;98960.00;4925750;29;20428;-74
2023/10/20 05:50:44;;;;;;;7.65;2.38;;;;;;;6.32;100.00;98928.28;4928017;29;20512;-74
2023/10/20 05:53:11;;;;;;;5.87;2.10;;;;;;;6.38;100.00;98941.81;4930195;29;20063;-75
2023/10/20 05:55:37;;;;;;;6.38;2.45;;;;;;;6.33;100.00;98929.91;4938427;28;20031;-75
2023/10/20 05:58:03;;;;;;;6.05;2.30;;;;;;;6.34;100.00;98946.63;4905346;29;20036;-75
2023/10/20 06:00:29;;;;;;;4.53;2.30;;;;;;;6.38;100.00;98968.31;4925987;29;20035;-74
2023/10/20 06:02:55;;;;;;;4.73;2.20;;;;;;;6.43;100.00;98971.25;4919817;29;20114;-74
2023/10/20 06:05:20;;;;;;;7.05;2.17;;;;;;;6.30;100.00;98972.69;4933632;29;20518;-75
2023/10/20 06:07:48;;;;;;;4.60;2.08;;;;;;;6.37;100.00;98971.97;4928968;29;20043;-74
2023/10/20 06:10:16;;;;;;;15.30;2.72;;;;;;;6.41;100.00;98979.38;4903827;29;20131;-75
2023/10/20 06:12:42;;;;;;;6.63;2.05;;;;;;;6.47;100.00;98980.50;4919267;29;20399;-75
2023/10/20 06:15:08;;;;;;;9.73;2.70;;;;;;;6.52;100.00;98991.38;4925563;29;20456;-76
2023/10/20 06:17:34;;;;;;;3.67;2.00;;;;;;;6.28;100.00;98965.91;4917688;29;20039;-75
2023/10/20 06:20:04;;;;;;;10.33;2.37;;;;;;;6.42;100.00;98970.44;4928927;28;20035;-75
2023/10/20 06:22:30;;;;;;;8.82;2.25;;;;;;;6.40;100.00;98971.63;4940692;29;20075;-75
2023/10/20 06:24:55;;;;;;;9.87;2.17;;;;;;;6.55;100.00;98983.91;4923262;28;20063;-75
2023/10/20 06:27:20;;;;;;;5.77;2.50;;;;;;;6.50;100.00;98961.56;4940049;29;20099;-75
2023/10/20 06:29:55;;;;;;;7.03;2.50;;;;;;;6.49;100.00;98965.25;4928150;29;20036;-76
2023/10/20 06:32:25;;;;;;;4.25;2.15;;;;;;;6.54;100.00;98969.00;4903627;29;20561;-74
2023/10/20 06:34:59;;;;;;;7.47;2.58;;;;;;;6.63;100.00;98971.59;4926345;29;20043;-73
2023/10/20 06:37:29;;;;;;;7.72;1.73;;;;;;;6.51;100.00;98957.94;4942013;28;20032;-74
2023/10/20 06:39:55;;;;;;;7.45;1.75;;;;;;;6.53;100.00;98948.81;4910573;29;20046;-76
2023/10/20 06:42:21;;;;;;;6.28;2.03;;;;;;;6.63;100.00;98961.78;4925806;29;20463;-75
2023/10/20 06:44:46;;;;;;;3.13;1.45;;;;;;;6.60;100.00;98948.88;4919731;29;20168;-74
2023/10/20 06:47:12;;;;;;;6.77;1.50;;;;;;;6.56;100.00;98952.91;4928243;29;20046;-73
2023/10/20 06:49:37;;;;;;;6.07;2.07;;;;;;;6.59;100.00;98949.91;4919890;29;20032;-75
2023/10/20 06:52:03;;;;;;;4.80;1.07;;;;;;;6.63;100.00;98935.28;4915252;29;20082;-74
2023/10/20 06:54:29;;;;;;;5.30;1.20;;;;;;;6.60;100.00;98934.81;4930507;28;20053;-74
2023/10/20 06:56:55;;;;;;;7.47;1.50;;;;;;;6.71;100.00;98932.53;4926085;28;20400;-74
2023/10/20 06:59:20;;;;;;;6.45;1.42;;;;;;;6.70;100.00;98899.06;4923214;29;20488;-75
2023/10/20 07:01:45;;;;;;;9.33;1.77;;;;;;;6.81;100.00;98905.72;4937372;28;20043;-74
2023/10/20 07:04:12;;;;;;;9.18;1.48;;;;;;;6.80;100.00;98884.72;4924014;29;20538;-75
2023/10/20 07:06:37;;;;;;;3.13;1.30;;;;;;;6.79;100.00;98891.84;4924962;29;20041;-74
2023/10/20 07:09:13;;;;;;;2.63;0.95;;;;;;;6.82;100.00;98890.66;4905769;29;20396;-74
2023/10/20 07:11:39;;;;;;;5.45;1.02;;;;;;;6.88;100.00;98850.97;4925882;29;20036;-75
2023/10/20 07:14:05;;;;;;;7.55;2.08;;;;;;;6.94;100.00;98857.34;4917724;29;20039;-75
2023/10/20 07:16:31;;;;;;;3.83;1.40;;;;;;;6.91;100.00;98863.84;4924039;28;20036;-75
2023/10/20 07:18:56;;;;;;;3.97;1.77;;;;;;;6.94;100.00;98854.69;4921331;29;20039;-76
2023/10/20 07:21:21;;;;;;;4.63;2.03;;;;;;;7.01;100.00;98855.59;4931049;28;20031;-74
2023/10/20 07:23:47;;;;;;;7.40;1.97;;;;;;;6.84;100.00;98846.22;4912487;28;20038;-74
2023/10/20 07:26:13;;;;;;;6.23;1.40;;;;;;;6.94;100.00;98825.50;4924618;29;20039;-74
2023/10/20 07:28:38;;;;;;;3.47;1.30;;;;;;;6.89;100.00;98820.75;4925297;29;20023;-76
2023/10/20 07:31:14;;;;;;;7.00;1.20;;;;;;;6.93;100.00;98814.09;4904359;29;20044;-74
2023/10/20 07:33:40;;;;;;;4.63;1.38;;;;;;;6.95;100.00;98819.19;4925601;29;20404;-74
2023/10/20 07:36:06;;;;;;;8.05;1.55;;;;;;;6.95;100.00;98828.00;4914827;29;20036;-74
2023/10/20 07:38:31;;;;;;;12.32;2.00;;;;;;;6.94;100.00;98836.13;4925175;29;20100;-75
2023/10/20 07:41:06;;;;;;;8.23;1.92;;;;;;;6.94;100.00;98846.72;4925726;29;20052;-74
2023/10/20 07:43:32;;;;;;;5.72;1.13;;;;;;;6.95;100.00;98858.97;4912981;29;20038;-74
2023/10/20 07:45:57;;;;;;;1.67;1.17;;;;;;;6.91;100.00;98878.94;4920702;28;20039;-77
2023/10/20 07:48:23;;;;;;;3.30;1.50;;;;;;;6.76;100.00;98874.44;4928769;29;20492;-74
2023/10/20 07:50:48;;;;;;;6.67;1.63;;;;;;;6.87;100.00;98896.22;4922961;29;20503;-75
2023/10/20 07:53:14;;;;;;;4.32;1.58;;;;;;;6.90;100.00;98914.44;4932449;28;20032;-74
2023/10/20 07:55:39;;;;;;;8.10;1.70;;;;;;;6.74;100.00;98912.78;4927995;29;20027;-75
2023/10/20 07:58:04;;;;;;;4.53;1.90;;;;;;;6.71;100.00;98929.88;4928784;29;20412;-74
2023/10/20 08:00:30;;;;;;;3.30;1.57;;;;;;;6.74;100.00;98926.88;4913311;29;20100;-73
2023/10/20 08:02:55;;;;;;;28.40;2.43;;;;;;;6.87;100.00;98946.63;4927008;28;20083;-75
2023/10/20 08:05:24;;;;;;;8.48;1.88;;;;;;;6.81;100.00;98942.88;4942040;29;20516;-73
2023/10/20 08:07:50;;;;;;;6.10;1.90;;;;;;;6.69;100.00;98939.84;4907603;29;20101;-73
2023/10/20 08:10:15;;;;;;;7.97;1.60;;;;;;;6.66;100.00;98926.94;4923816;29;20512;-75
2023/10/20 08:12:40;;;;;;;7.47;1.60;;;;;;;6.80;100.00;98943.88;4936033;29;20059;-75
2023/10/20 08:15:06;;;;;;;2.37;1.10;;;;;;;6.78;100.00;98953.03;4916404;29;20433;-75
2023/10/20 08:17:32;;;;;;;5.05;1.63;;;;;;;6.71;100.00;98943.13;4926651;28;20198;-75
2023/10/20 08:19:59;;;;;;;5.35;1.30;;;;;;;6.73;100.00;98953.56;4921026;29;20042;-74
2023/10/20 08:22:24;;;;;;;5.10;1.30;;;;;;;6.63;100.00;98939.75;4925293;29;20023;-75
2023/10/20 08:24:51;;;;;;;6.10;2.03;;;;;;;6.68;100.00;98948.81;4928254;28;20043;-75
2023/10/20 08:27:18;;;;;;;5.25;1.52;;;;;;;6.66;100.00;98953.47;4914783;29;20027;-74
2023/10/20 08:29:48;;;;;;;6.55;1.92;;;;;;;6.65;100.00;98951.84;4927104;29;20027;-75
2023/10/20 08:32:13;;;;;;;8.98;1.88;;;;;;;6.63;100.00;98958.31;4922474;28;20070;-76
2023/10/20 08:34:39;;;;;;;5.55;1.65;;;;;;;6.60;100.00;98951.53;4927897;29;20119;-77
2023/10/20 08:37:04;;;;;;;6.80;1.75;;;;;;;6.61;100.00;98941.78;4918109;29;20059;-77
2023/10/20 08:39:30;;;;;;;3.30;1.43;;;;;;;6.49;100.00;98952.00;4926781;29;20035;-75
2023/10/20 08:41:56;;;;;;;3.28;1.42;;;;;;;6.59;100.00;98971.09;4920400;29;20306;-78
2023/10/20 08:44:22;;;;;;;3.25;1.42;;;;;;;6.63;100.00;98958.31;4927765;29;20032;-77
2023/10/20 08:46:50;;;;;;;3.92;1.77;;;;;;;6.67;100.00;98967.53;4930273;29;20024;-77
2023/10/20 08:49:18;;;;;;;3.47;1.50;;;;;;;6.60;100.00;98963.97;4907558;29;20044;-78
2023/10/20 08:51:46;;;;;;;2.28;1.45;;;;;;;6.63;100.00;98967.09;4929132;29;20050;-76
2023/10/20 08:54:13;;;;;;;7.43;1.77;;;;;;;6.87;100.00;98973.16;4929144;29;20550;-77
2023/10/20 08:56:40;;;;;;;2.25;1.40;;;;;;;6.78;100.00;98964.47;4930228;29;20027;-78
2023/10/20 08:59:07;;;;;;;2.45;1.38;;;;;;;6.82;100.00;98947.19;4919004;29;20078;-76
2023/10/20 09:01:33;;;;;;;2.40;1.35;;;;;;;6.79;100.00;98952.00;4931830;28;20531;-77
2023/10/20 09:04:00;;;;;;;4.35;1.45;;;;;;;6.78;100.00;98935.28;4920197;28;20035;-77
2023/10/20 09:06:26;;;;;;;3.72;1.67;;;;;;;6.83;100.00;98945.34;4913576;28;20038;-77
2023/10/20 09:08:53;;;;;;;1.77;0.90;;;;;;;6.87;100.00;98942.16;4929372;28;20028;-76
2023/10/20 09:11:19;;;;;;;3.13;1.58;;;;;;;6.88;100.00;98946.47;4928275;29;20028;-77
2023/10/20 09:13:46;;;;;;;2.45;1.20;;;;;;;6.83;100.00;98919.63;4928442;28;20480;-77
2023/10/20 09:16:13;;;;;;;3.42;1.33;;;;;;;6.84;100.00;98925.78;4930834;29;20039;-76
2023/10/20 09:18:50;;;;;;;3.33;1.27;;;;;;;6.81;100.00;98926.13;4927106;29;20065;-76
2023/10/20 09:21:20;;;;;;;2.45;1.33;;;;;;;6.88;100.00;98911.13;4925889;29;20036;-75
2023/10/20 09:24:14;;;;;;;2.25;1.77;;;;;;;6.75;100.00;98902.00;4942141;29;20047;-75
2023/10/20 09:26:40;;;;;;;2.28;1.73;;;;;;;6.71;100.00;98879.47;4923845;28;20047;-77
2023/10/20 09:29:06;;;;;;;2.45;1.80;;;;;;;6.88;100.00;98874.00;4921143;29;20027;-74
2023/10/20 09:31:33;;;;;;;4.05;1.63;;;;;;;6.81;100.00;98841.25;4939746;28;20036;-77
2023/10/20 09:33:58;;;;;;;;;;;;;;;6.85;100.00;98855.81;4925977;28;20028;-75
2023/10/20 09:36:24;;;;;;;1.60;1.50;;;;;;;6.86;100.00;98838.88;4933241;28;19926;-76
2023/10/20 09:38:54;;;;;;;3.95;1.40;;;;;;;6.78;100.00;98825.72;4926825;29;20032;-75
2023/10/20 09:41:24;;;;;;;2.95;1.30;;;;;;;6.96;100.00;98845.53;4910572;29;20112;-75
2023/10/20 09:43:54;;;;;;;7.00;1.58;;;;;;;6.79;100.00;98851.22;4923483;29;20455;-75
2023/10/20 09:46:19;;;;;;;2.08;1.67;;;;;;;6.90;100.00;98871.97;4924339;29;20031;-77
2023/10/20 09:48:47;;;;;;;3.20;1.17;;;;;;;6.74;100.00;98855.28;4931072;29;20035;-76
2023/10/20 09:51:15;;;;;;;3.35;1.65;;;;;;;6.74;100.00;98860.56;4937207;28;20042;-77
2023/10/20 09:53:41;;;;;;;4.25;1.40;;;;;;;6.88;100.00;98855.41;4941876;29;20269;-77
2023/10/20 09:56:07;;;;;;;2.42;1.25;;;;;;;6.90;100.00;98862.19;4911239;29;20110;-78
2023/10/20 09:58:36;;;;;;;3.58;1.92;;;;;;;6.81;100.00;98854.50;4942539;28;20066;-77
2023/10/20 10:01:03;;;;;;;6.20;1.77;;;;;;;6.80;100.00;98874.09;4913970;29;20100;-77
2023/10/20 10:03:39;;;;;;;5.03;1.13;;;;;;;6.85;100.00;98887.63;4932156;28;20090;-77
2023/10/20 10:06:10;;;;;;;2.55;1.30;;;;;;;6.80;100.00;98876.75;4928798;28;20044;-77
2023/10/20 10:08:41;;;;;;;1.35;1.10;;;;;;;6.80;100.00;98866.16;4943346;29;20142;-77
2023/10/20 10:11:26;;;;;;;4.03;1.13;;;;;;;6.84;100.00;98875.38;4926538;28;20043;-76
2023/10/20 10:13:54;;;;;;;5.05;1.75;;;;;;;6.53;100.00;98826.00;4914282;28;20036;-77
2023/10/20 10:16:21;;;;;;;3.83;1.30;;;;;;;6.73;100.00;98868.69;4931287;29;20020;-77
2023/10/20 10:18:47;;;;;;;4.13;1.95;;;;;;;6.58;100.00;98858.09;4926311;28;20464;-77
2023/10/20 10:21:29;;;;;;;5.20;2.33;;;;;;;6.63;100.00;98854.91;4923709;29;20456;-77
2023/10/20 10:24:11;;;;;;;7.47;1.60;;;;;;;6.42;100.00;98853.81;4925683;29;20051;-77
2023/10/20 10:26:57;;;;;;;3.80;1.83;;;;;;;6.51;100.00;98862.50;4925556;29;20122;-77
2023/10/20 10:30:09;;;;;;;4.72;1.83;;;;;;;6.39;100.00;98870.06;4909173;29;20471;-76
2023/10/20 10:32:44;;;;;;;5.30;1.63;;;;;;;6.46;100.00;98872.81;4923461;29;20058;-78
2023/10/20 10:35:15;;;;;;;5.80;2.17;;;;;;;6.34;100.00;98856.53;4920225;28;20050;-78
2023/10/20 10:37:40;;;;;;;9.07;2.97;;;;;;;6.46;100.00;98859.53;4925651;29;20051;-79
2023/10/20 10:40:18;;;;;;;8.10;1.83;;;;;;;6.26;100.00;98853.97;4926841;28;20117;-77
2023/10/20 10:42:52;;;;;;;8.15;3.78;;;;;;;6.56;100.00;98870.72;4929134;29;20036;-78
2023/10/20 10:45:19;;;;;;;6.07;2.55;;;;;;;6.52;100.00;98858.81;4927700;28;20039;-78
2023/10/20 10:47:46;;;;;;;8.90;2.67;;;;;;;6.60;100.00;98856.06;4915918;29;20024;-77
2023/10/20 10:50:11;;;;;;;;;;;;;;;6.60;100.00;98857.91;4927587;28;20036;-78
2023/10/20 10:52:37;;;;;;;7.38;2.20;;;;;;;6.46;100.00;98849.78;4929780;28;20409;-78
2023/10/20 10:55:04;;;;;;;9.50;2.05;;;;;;;6.59;100.00;98856.28;4929766;29;20048;-78
2023/10/20 10:57:30;;;;;;;5.40;1.70;;;;;;;6.54;100.00;98846.22;4942679;29;20443;-78
2023/10/20 10:59:56;;;;;;;8.90;3.58;;;;;;;6.65;100.00;98858.19;4926150;29;20126;-77
2023/10/20 11:02:22;;;;;;;5.63;2.22;;;;;;;6.44;100.00;98824.44;4925521;28;20456;-77
2023/10/20 11:04:47;;;;;;;4.15;2.47;;;;;;;6.61;100.00;98849.78;4928354;29;20059;-77
2023/10/20 11:07:13;;;;;;;12.75;3.10;;;;;;;6.50;100.00;98835.13;4912144;29;20091;-78
2023/10/20 11:09:39;;;;;;;7.78;2.92;;;;;;;6.51;100.00;98825.38;4929299;29;20034;-77
2023/10/20 11:12:08;;;;;;;5.68;2.30;;;;;;;6.43;100.00;98825.47;4917534;29;20055;-77
2023/10/20 11:14:34;;;;;;;9.02;3.05;;;;;;;6.46;100.00;98822.44;4939419;29;20431;-77
2023/10/20 11:17:03;;;;;;;6.67;2.40;;;;;;;6.57;100.00;98818.50;4905609;29;20111;-77
2023/10/20 11:19:29;;;;;;;14.63;3.28;;;;;;;6.61;100.00;98812.66;4928482;29;20444;-78
2023/10/20 11:21:54;;;;;;;8.63;2.08;;;;;;;6.63;100.00;98813.28;4920131;29;20043;-77
2023/10/20 11:24:34;;;;;;;9.50;3.03;;;;;;;6.59;100.00;98804.06;4923335;29;20065;-76
2023/10/20 11:27:11;;;;;;;7.10;2.92;;;;;;;6.59;100.00;98798.75;4940202;29;20051;-76
2023/10/20 11:29:37;;;;;;;7.93;2.38;;;;;;;6.69;100.00;98798.47;4921470;29;20067;-77
2023/10/20 11:32:07;;;;;;;14.57;3.67;;;;;;;6.65;100.00;98778.63;4930047;28;20032;-76
2023/10/20 11:34:36;;;;;;;9.00;3.13;;;;;;;6.78;100.00;98796.53;4924843;29;20035;-77
2023/10/20 11:37:03;;;;;;;4.82;2.00;;;;;;;6.82;100.00;98796.00;4916216;29;20020;-77
2023/10/20 11:39:29;;;;;;;7.28;2.90;;;;;;;6.89;100.00;98785.47;4932005;28;20413;-76
2023/10/20 11:41:54;;;;;;;6.68;2.50;;;;;;;6.76;100.00;98754.28;4918825;29;20031;-76
2023/10/20 11:44:26;;;;;;;7.07;2.38;;;;;;;6.89;100.00;98777.50;4945266;23;20527;-75
2023/10/20 11:46:53;;;;;;;6.30;2.08;;;;;;;6.74;100.00;98762.44;4925972;28;20390;-76
2023/10/20 11:49:19;;;;;;;7.72;3.03;;;;;;;6.80;100.00;98786.56;4908876;29;20024;-74
2023/10/20 11:51:45;;;;;;;;;;;;;;;6.87;100.00;98776.84;4935625;28;20035;-75
2023/10/20 11:54:11;;;;;;;8.75;2.35;;;;;;;6.82;100.00;98774.78;4926476;29;19922;-74
2023/10/20 11:56:36;;;;;;;14.10;2.95;;;;;;;6.79;100.00;98775.16;4932374;29;20028;-74